createdAt,value
2023-02-18T00:01:47.675Z,13.29
2023-02-18T00:04:15.307Z,13.22
2023-02-18T00:06:42.925Z,13.25
2023-02-18T00:09:12.504Z,13.34
2023-02-18T00:11:40.244Z,13.31
2023-02-18T00:14:11.757Z,13.33
2023-02-18T00:16:39.426Z,13.31
2023-02-18T00:19:09.227Z,13.40
2023-02-18T00:21:37.403Z,13.34
2023-02-18T00:24:06.142Z,13.32
2023-02-18T00:26:35.951Z,13.37
2023-02-18T00:29:04.198Z,13.37
2023-02-18T00:31:34.132Z,13.34
2023-02-18T00:34:02.642Z,13.37
2023-02-18T00:36:31.233Z,13.31
2023-02-18T00:39:03.478Z,13.34
2023-02-18T00:41:31.487Z,13.37
2023-02-18T00:44:00.964Z,13.35
2023-02-18T00:46:29.394Z,13.35
2023-02-18T00:48:57.207Z,13.31
2023-02-18T00:51:26.206Z,13.28
2023-02-18T00:53:54.032Z,13.27
2023-02-18T00:56:21.917Z,13.23
2023-02-18T00:58:50.184Z,13.18
2023-02-18T01:01:20.365Z,13.17
2023-02-18T01:03:48.188Z,13.20
2023-02-18T01:06:16.153Z,13.15
2023-02-18T01:08:43.735Z,13.16
2023-02-18T01:11:13.331Z,13.17
2023-02-18T01:13:42.277Z,13.13
2023-02-18T01:16:10.525Z,13.12
2023-02-18T01:18:40.213Z,13.12
2023-02-18T01:21:09.065Z,13.16
2023-02-18T01:23:38.550Z,13.15
2023-02-18T01:26:07.219Z,13.16
2023-02-18T01:28:35.100Z,13.16
2023-02-18T01:31:07.043Z,13.16
2023-02-18T01:33:35.427Z,13.11
2023-02-18T01:36:05.560Z,13.10
2023-02-18T01:38:33.330Z,13.06
2023-02-18T01:41:01.808Z,13.13
2023-02-18T01:43:29.926Z,13.08
2023-02-18T01:46:03.889Z,13.02
2023-02-18T01:48:35.936Z,13.03
2023-02-18T01:51:11.215Z,13.02
2023-02-18T01:53:46.759Z,13.01
2023-02-18T01:56:20.877Z,12.98
2023-02-18T01:58:49.177Z,12.97
2023-02-18T02:01:16.889Z,12.93
2023-02-18T02:03:44.419Z,12.92
2023-02-18T02:06:17.550Z,12.98
2023-02-18T02:08:46.706Z,12.95
2023-02-18T02:11:24.818Z,13.03
2023-02-18T02:14:07.398Z,13.03
2023-02-18T02:16:42.555Z,13.06
2023-02-18T02:19:34.343Z,13.09
2023-02-18T02:22:42.222Z,13.07
2023-02-18T02:25:20.590Z,13.10
2023-02-18T02:28:11.610Z,13.04
2023-02-18T02:31:18.618Z,13.05
2023-02-18T02:34:22.644Z,12.97
2023-02-18T02:36:58.882Z,12.89
2023-02-18T02:39:33.600Z,12.82
2023-02-18T02:42:11.154Z,12.74
2023-02-18T02:44:48.096Z,12.63
2023-02-18T02:47:26.563Z,12.60
2023-02-18T02:50:00.959Z,12.55
2023-02-18T02:52:33.798Z,12.38
2023-02-18T02:55:01.701Z,12.33
2023-02-18T02:57:48.153Z,12.24
2023-02-18T03:00:24.139Z,12.09
2023-02-18T03:03:18.398Z,12.01
2023-02-18T03:06:07.593Z,11.96
2023-02-18T03:08:45.265Z,11.95
2023-02-18T03:11:15.215Z,11.95
2023-02-18T03:13:54.763Z,11.93
2023-02-18T03:16:31.869Z,11.89
2023-02-18T03:19:07.460Z,11.87
2023-02-18T03:21:40.282Z,11.85
2023-02-18T03:24:15.386Z,11.93
2023-02-18T03:26:48.114Z,11.99
2023-02-18T03:29:19.206Z,12.02
2023-02-18T03:31:55.308Z,12.11
2023-02-18T03:34:29.810Z,12.18
2023-02-18T03:36:59.586Z,12.25
2023-02-18T03:39:30.442Z,12.42
2023-02-18T03:41:58.254Z,12.51
2023-02-18T03:44:27.401Z,12.56
2023-02-18T03:46:55.048Z,12.62
2023-02-18T03:49:22.935Z,12.64
2023-02-18T03:51:50.555Z,12.62
2023-02-18T03:54:18.188Z,12.62
2023-02-18T03:56:47.072Z,12.70
2023-02-18T03:59:14.738Z,12.71
2023-02-18T04:01:42.442Z,12.81
2023-02-18T04:04:10.183Z,12.85
2023-02-18T04:06:37.798Z,12.78
2023-02-18T04:09:08.824Z,12.78
2023-02-18T04:11:37.934Z,12.76
2023-02-18T04:14:07.481Z,12.80
2023-02-18T04:16:35.215Z,12.78
2023-02-18T04:19:02.788Z,12.75
2023-02-18T04:21:30.384Z,12.73
2023-02-18T04:23:58.021Z,12.70
2023-02-18T04:26:25.651Z,12.76
2023-02-18T04:28:53.295Z,12.78
2023-02-18T04:31:22.621Z,12.74
2023-02-18T04:33:50.249Z,12.68
2023-02-18T04:36:17.831Z,12.65
2023-02-18T04:38:46.076Z,12.68
2023-02-18T04:41:13.739Z,12.70
2023-02-18T04:43:41.341Z,12.74
2023-02-18T04:46:09.191Z,12.69
2023-02-18T04:48:38.337Z,12.67
2023-02-18T04:51:06.281Z,12.70
2023-02-18T04:53:34.480Z,12.67
2023-02-18T04:56:02.115Z,12.65
2023-02-18T04:58:29.648Z,12.61
2023-02-18T05:01:00.146Z,12.55
2023-02-18T05:03:27.832Z,12.50
2023-02-18T05:05:56.904Z,12.58
2023-02-18T05:08:24.709Z,12.50
2023-02-18T05:10:52.295Z,12.55
2023-02-18T05:13:20.162Z,12.47
2023-02-18T05:15:47.741Z,12.52
2023-02-18T05:18:15.451Z,12.47
2023-02-18T05:20:43.089Z,12.51
2023-02-18T05:23:11.998Z,12.52
2023-02-18T05:25:39.580Z,12.47
2023-02-18T05:28:07.249Z,12.48
2023-02-18T05:30:34.905Z,12.42
2023-02-18T05:33:02.520Z,12.53
2023-02-18T05:35:30.086Z,12.52
2023-02-18T05:37:57.622Z,12.54
2023-02-18T05:40:26.613Z,12.55
2023-02-18T05:42:54.200Z,12.51
2023-02-18T05:45:21.782Z,12.56
2023-02-18T05:47:49.425Z,12.53
2023-02-18T05:50:17.117Z,12.54
2023-02-18T05:52:44.717Z,12.61
2023-02-18T05:55:12.356Z,12.59
2023-02-18T05:57:41.504Z,12.60
2023-02-18T06:00:10.262Z,12.60
2023-02-18T06:02:38.021Z,12.58
2023-02-18T06:05:06.769Z,12.57
2023-02-18T06:07:34.541Z,12.62
2023-02-18T06:10:02.166Z,12.62
2023-02-18T06:12:29.716Z,12.64
2023-02-18T06:14:58.617Z,12.62
2023-02-18T06:17:26.148Z,12.69
2023-02-18T06:19:53.717Z,12.66
2023-02-18T06:22:22.182Z,12.64
2023-02-18T06:24:49.853Z,12.67
2023-02-18T06:27:17.449Z,12.63
2023-02-18T06:29:45.224Z,12.62
2023-02-18T06:32:14.182Z,12.74
2023-02-18T06:34:41.778Z,12.69
2023-02-18T06:37:09.437Z,12.71
2023-02-18T06:39:37.165Z,12.76
2023-02-18T06:42:05.024Z,12.75
2023-02-18T06:44:32.612Z,12.78
2023-02-18T06:47:00.193Z,12.76
2023-02-18T06:49:30.287Z,12.84
2023-02-18T06:51:57.965Z,12.78
2023-02-18T06:54:26.034Z,12.86
2023-02-18T06:56:53.780Z,12.82
2023-02-18T06:59:21.372Z,12.86
2023-02-18T07:01:48.922Z,12.99
2023-02-18T07:04:16.597Z,13.00
2023-02-18T07:06:45.528Z,13.16
2023-02-18T07:09:13.092Z,13.22
2023-02-18T07:11:40.764Z,13.18
2023-02-18T07:14:08.529Z,13.27
2023-02-18T07:16:36.206Z,13.37
2023-02-18T07:19:03.902Z,13.26
2023-02-18T07:21:31.578Z,13.30
2023-02-18T07:24:00.658Z,13.38
2023-02-18T07:26:28.311Z,13.38
2023-02-18T07:28:56.023Z,13.43
2023-02-18T07:31:23.868Z,13.44
2023-02-18T07:33:51.467Z,13.45
2023-02-18T07:36:19.093Z,13.43
2023-02-18T07:38:46.743Z,13.52
2023-02-18T07:41:20.082Z,13.57
2023-02-18T07:43:47.553Z,13.59
2023-02-18T07:46:15.255Z,13.66
2023-02-18T07:48:42.997Z,13.70
2023-02-18T07:51:12.572Z,13.60
2023-02-18T07:53:41.584Z,13.61
2023-02-18T07:56:09.620Z,13.68
2023-02-18T07:58:39.665Z,13.66
2023-02-18T08:01:09.805Z,13.72
2023-02-18T08:03:38.027Z,13.71
2023-02-18T08:06:06.956Z,13.80
2023-02-18T08:08:37.086Z,13.78
2023-02-18T08:11:18.396Z,13.72
2023-02-18T08:13:48.576Z,13.70
2023-02-18T08:16:16.501Z,13.82
2023-02-18T08:18:44.409Z,13.84
2023-02-18T08:21:12.246Z,13.83
2023-02-18T08:23:39.941Z,13.92
2023-02-18T08:26:08.189Z,13.99
2023-02-18T08:28:43.073Z,13.95
2023-02-18T08:31:19.119Z,13.98
2023-02-18T08:33:46.729Z,13.92
2023-02-18T08:36:14.499Z,13.90
2023-02-18T08:38:42.080Z,13.90
2023-02-18T08:41:10.948Z,13.91
2023-02-18T08:43:38.955Z,13.79
2023-02-18T08:46:07.092Z,13.86
2023-02-18T08:48:36.140Z,13.99
2023-02-18T08:51:12.955Z,14.09
2023-02-18T08:53:42.035Z,14.22
2023-02-18T08:56:10.852Z,14.23
2023-02-18T08:58:38.896Z,14.25
2023-02-18T09:01:08.821Z,14.25
2023-02-18T09:03:38.071Z,14.25
2023-02-18T09:06:06.577Z,14.17
2023-02-18T09:08:34.282Z,14.13
2023-02-18T09:11:04.421Z,14.18
2023-02-18T09:13:32.656Z,14.27
2023-02-18T09:16:03.444Z,14.20
2023-02-18T09:18:31.347Z,13.96
2023-02-18T09:21:01.712Z,14.03
2023-02-18T09:23:31.813Z,14.13
2023-02-18T09:25:59.743Z,13.97
2023-02-18T09:28:27.712Z,14.07
2023-02-18T09:30:55.354Z,14.23
2023-02-18T09:33:23.468Z,14.35
2023-02-18T09:35:51.268Z,14.25
2023-02-18T09:38:20.157Z,14.19
2023-02-18T09:40:52.746Z,14.35
2023-02-18T09:43:30.072Z,14.28
2023-02-18T09:45:59.214Z,14.24
2023-02-18T09:48:29.421Z,14.15
2023-02-18T09:50:57.368Z,14.05
2023-02-18T09:53:27.021Z,13.96
2023-02-18T09:55:57.214Z,14.05
2023-02-18T09:58:27.573Z,14.05
2023-02-18T10:01:03.341Z,13.97
2023-02-18T10:03:31.569Z,14.01
2023-02-18T10:06:01.450Z,14.18
2023-02-18T10:08:34.210Z,14.24
2023-02-18T10:11:01.979Z,14.21
2023-02-18T10:13:32.126Z,14.08
2023-02-18T10:16:00.174Z,13.97
2023-02-18T10:18:31.329Z,14.06
2023-02-18T10:21:06.178Z,14.21
2023-02-18T10:23:39.049Z,14.19
2023-02-18T10:26:11.226Z,14.12
2023-02-18T10:28:39.850Z,14.07
2023-02-18T10:31:11.351Z,13.97
2023-02-18T10:33:47.221Z,13.91
2023-02-18T10:36:25.694Z,13.89
2023-02-18T10:39:16.381Z,14.03
2023-02-18T10:41:52.490Z,14.04
2023-02-18T10:44:27.536Z,14.20
2023-02-18T10:47:03.349Z,14.01
2023-02-18T10:49:49.820Z,13.94
2023-02-18T10:52:19.286Z,14.02
2023-02-18T10:54:54.032Z,14.06
2023-02-18T10:57:24.548Z,14.00
2023-02-18T11:00:01.342Z,14.17
2023-02-18T11:02:32.545Z,14.12
2023-02-18T11:05:06.501Z,14.06
2023-02-18T11:07:36.388Z,14.02
2023-02-18T11:10:16.956Z,13.93
2023-02-18T11:12:47.381Z,13.99
2023-02-18T11:15:21.612Z,14.08
2023-02-18T11:17:51.800Z,14.14
2023-02-18T11:20:29.620Z,14.22
2023-02-18T11:23:17.990Z,14.27
2023-02-18T11:25:58.063Z,14.26
2023-02-18T11:28:32.437Z,14.44
2023-02-18T11:31:03.483Z,14.52
2023-02-18T11:33:35.547Z,14.44
2023-02-18T11:36:15.167Z,14.42
2023-02-18T11:38:47.672Z,14.57
2023-02-18T11:41:19.902Z,14.59
2023-02-18T11:43:50.790Z,14.62
2023-02-18T11:46:20.517Z,14.77
2023-02-18T11:48:49.187Z,14.86
2023-02-18T11:51:19.063Z,14.62
2023-02-18T11:54:03.470Z,14.58
2023-02-18T11:56:35.345Z,14.45
2023-02-18T11:59:05.205Z,14.54
2023-02-18T12:01:44.642Z,14.67
2023-02-18T12:04:15.197Z,14.70
2023-02-18T12:06:53.329Z,14.69
2023-02-18T12:09:27.703Z,14.59
2023-02-18T12:12:00.254Z,14.55
2023-02-18T12:14:28.435Z,14.52
2023-02-18T12:17:27.555Z,14.62
2023-02-18T12:20:18.807Z,14.67
2023-02-18T12:22:52.576Z,14.73
2023-02-18T12:25:30.663Z,14.82
2023-02-18T12:28:13.909Z,15.02
2023-02-18T12:31:08.702Z,15.12
2023-02-18T12:33:46.288Z,15.27
2023-02-18T12:36:21.555Z,15.08
2023-02-18T12:39:02.862Z,14.90
2023-02-18T12:41:42.557Z,14.72
2023-02-18T12:44:27.512Z,14.63
2023-02-18T12:47:16.814Z,14.57
2023-02-18T12:49:59.553Z,14.55
2023-02-18T12:52:42.968Z,14.46
2023-02-18T12:55:28.338Z,14.34
2023-02-18T12:58:06.736Z,14.45
2023-02-18T13:00:53.764Z,14.65
2023-02-18T13:03:53.946Z,14.66
2023-02-18T13:06:48.973Z,14.79
2023-02-18T13:09:27.528Z,14.80
2023-02-18T13:12:08.074Z,14.67
2023-02-18T13:14:44.579Z,14.67
2023-02-18T13:17:17.218Z,14.83
2023-02-18T13:19:50.625Z,15.04
2023-02-18T13:22:20.603Z,15.04
2023-02-18T13:24:50.447Z,15.18
2023-02-18T13:27:25.408Z,15.17
2023-02-18T13:30:17.479Z,15.19
2023-02-18T13:32:54.927Z,15.37
2023-02-18T13:35:29.616Z,15.58
2023-02-18T13:38:13.574Z,15.40
2023-02-18T13:40:41.754Z,15.50
2023-02-18T13:43:30.299Z,15.21
2023-02-18T13:46:11.750Z,15.63
2023-02-18T13:48:45.929Z,15.61
2023-02-18T13:51:16.443Z,15.82
2023-02-18T13:53:50.462Z,16.34
2023-02-18T13:56:28.407Z,16.85
2023-02-18T13:59:02.296Z,16.23
2023-02-18T14:01:41.293Z,16.45
2023-02-18T14:04:49.192Z,16.69
2023-02-18T14:07:47.794Z,17.55
2023-02-18T14:10:32.678Z,17.95
2023-02-18T14:13:24.539Z,18.08
2023-02-18T14:15:56.534Z,17.45
2023-02-18T14:18:35.410Z,17.60
2023-02-18T14:21:23.347Z,17.71
2023-02-18T14:24:06.198Z,17.10
2023-02-18T14:26:37.208Z,16.82
2023-02-18T14:29:19.469Z,16.28
2023-02-18T14:31:54.441Z,16.56
2023-02-18T14:34:48.080Z,16.63
2023-02-18T14:37:52.967Z,16.13
2023-02-18T14:40:57.379Z,15.88
2023-02-18T14:43:35.157Z,15.63
2023-02-18T14:46:15.181Z,15.34
2023-02-18T14:48:59.978Z,15.34
2023-02-18T14:51:31.526Z,15.17
2023-02-18T14:54:05.143Z,15.26
2023-02-18T14:56:39.197Z,15.27
2023-02-18T14:59:07.537Z,15.07
2023-02-18T15:01:36.547Z,15.01
2023-02-18T15:04:05.242Z,14.94
2023-02-18T15:06:34.893Z,14.88
2023-02-18T15:09:14.800Z,14.67
2023-02-18T15:11:47.831Z,14.74
2023-02-18T15:14:19.456Z,14.49
2023-02-18T15:16:49.273Z,14.25
2023-02-18T15:19:19.978Z,14.21
2023-02-18T15:21:50.402Z,14.16
2023-02-18T15:24:26.336Z,14.28
2023-02-18T15:26:56.622Z,14.41
2023-02-18T15:29:26.196Z,14.34
2023-02-18T15:31:57.571Z,14.17
2023-02-18T15:34:34.535Z,13.99
2023-02-18T15:37:04.188Z,14.18
2023-02-18T15:39:33.585Z,14.03
2023-02-18T15:42:04.506Z,13.96
2023-02-18T15:44:35.272Z,13.95
2023-02-18T15:47:08.128Z,13.94
2023-02-18T15:49:37.539Z,13.86
2023-02-18T15:52:06.669Z,13.76
2023-02-18T15:54:40.423Z,13.76
2023-02-18T15:57:13.683Z,13.79
2023-02-18T15:59:46.515Z,13.70
2023-02-18T16:02:20.183Z,13.64
2023-02-18T16:04:52.025Z,13.61
2023-02-18T16:07:24.491Z,13.61
2023-02-18T16:10:08.509Z,13.62
2023-02-18T16:12:40.323Z,13.50
2023-02-18T16:15:16.807Z,13.59
2023-02-18T16:17:45.970Z,13.49
2023-02-18T16:20:24.493Z,13.37
2023-02-18T16:22:54.418Z,13.44
2023-02-18T16:25:26.952Z,13.47
2023-02-18T16:28:04.204Z,13.42
2023-02-18T16:30:33.804Z,13.42
2023-02-18T16:33:01.548Z,13.35
2023-02-18T16:35:47.503Z,13.29
2023-02-18T16:38:18.316Z,13.30
2023-02-18T16:40:47.526Z,13.33
2023-02-18T16:43:16.418Z,13.26
2023-02-18T16:45:48.439Z,13.23
2023-02-18T16:48:20.608Z,13.13
2023-02-18T16:50:50.463Z,13.10
2023-02-18T16:53:18.038Z,13.02
2023-02-18T16:55:47.479Z,12.99
2023-02-18T16:58:15.026Z,13.00
2023-02-18T17:00:44.055Z,12.98
2023-02-18T17:03:13.499Z,12.94
2023-02-18T17:05:41.424Z,12.82
2023-02-18T17:08:17.058Z,12.75
2023-02-18T17:10:44.638Z,12.64
2023-02-18T17:13:16.719Z,12.64
2023-02-18T17:15:47.793Z,12.66
2023-02-18T17:18:15.442Z,12.68
2023-02-18T17:20:43.332Z,12.59
2023-02-18T17:23:14.849Z,12.59
2023-02-18T17:25:42.922Z,12.53
2023-02-18T17:28:10.560Z,12.38
2023-02-18T17:30:41.463Z,12.38
2023-02-18T17:33:12.848Z,12.40
2023-02-18T17:35:40.392Z,12.35
2023-02-18T17:38:11.339Z,12.28
2023-02-18T17:40:38.910Z,12.14
2023-02-18T17:43:07.076Z,12.19
2023-02-18T17:45:37.451Z,12.12
2023-02-18T17:48:06.745Z,12.08
2023-02-18T17:50:34.254Z,12.13
2023-02-18T17:53:01.933Z,12.09
2023-02-18T17:55:31.814Z,12.14
2023-02-18T17:58:00.149Z,12.09
2023-02-18T18:00:30.244Z,12.00
2023-02-18T18:02:58.227Z,12.07
2023-02-18T18:05:29.296Z,12.08
2023-02-18T18:07:57.092Z,12.09
2023-02-18T18:10:30.467Z,11.96
2023-02-18T18:12:58.345Z,11.93
2023-02-18T18:15:29.304Z,11.88
2023-02-18T18:17:58.155Z,11.95
2023-02-18T18:20:28.582Z,12.00
2023-02-18T18:22:59.305Z,11.99
2023-02-18T18:25:28.564Z,11.95
2023-02-18T18:27:56.430Z,11.90
2023-02-18T18:30:25.731Z,11.95
2023-02-18T18:32:54.125Z,11.83
2023-02-18T18:35:26.221Z,11.82
2023-02-18T18:37:55.706Z,11.87
2023-02-18T18:40:26.473Z,11.84
2023-02-18T18:42:56.418Z,11.89
2023-02-18T18:45:26.284Z,11.86
2023-02-18T18:47:54.337Z,11.77
2023-02-18T18:50:23.699Z,11.68
2023-02-18T18:52:52.488Z,11.70
2023-02-18T18:55:30.264Z,11.61
2023-02-18T18:57:58.604Z,11.62
2023-02-18T19:00:29.115Z,11.67
2023-02-18T19:02:56.844Z,11.73
2023-02-18T19:05:28.093Z,11.61
2023-02-18T19:07:56.339Z,11.61
2023-02-18T19:10:28.242Z,11.52
2023-02-18T19:12:56.441Z,11.43
2023-02-18T19:15:24.709Z,11.46
2023-02-18T19:17:54.614Z,11.40
2023-02-18T19:20:24.235Z,11.41
2023-02-18T19:22:52.239Z,11.36
2023-02-18T19:25:21.454Z,11.28
2023-02-18T19:27:51.360Z,11.27
2023-02-18T19:30:22.847Z,11.23
2023-02-18T19:32:51.339Z,11.33
2023-02-18T19:35:19.744Z,11.33
2023-02-18T19:37:47.872Z,11.28
2023-02-18T19:40:18.096Z,11.15
2023-02-18T19:42:45.617Z,11.22
2023-02-18T19:45:15.688Z,11.16
2023-02-18T19:47:43.410Z,11.13
2023-02-18T19:50:14.148Z,11.11
2023-02-18T19:52:41.813Z,11.07
2023-02-18T19:55:10.149Z,10.96
2023-02-18T19:57:37.856Z,10.95
2023-02-18T20:00:08.889Z,10.85
2023-02-18T20:02:44.030Z,10.80
2023-02-18T20:05:13.794Z,10.79
2023-02-18T20:07:56.409Z,10.85
2023-02-18T20:10:25.245Z,10.84
2023-02-18T20:12:54.515Z,10.86
2023-02-18T20:15:23.020Z,10.90
2023-02-18T20:17:51.987Z,10.84
2023-02-18T20:20:20.495Z,10.84
2023-02-18T20:22:48.297Z,10.87
2023-02-18T20:25:15.939Z,10.82
2023-02-18T20:27:59.480Z,10.83
2023-02-18T20:30:27.869Z,10.74
2023-02-18T20:32:56.807Z,10.59
2023-02-18T20:35:24.462Z,10.62
2023-02-18T20:37:52.027Z,10.70
2023-02-18T20:40:19.905Z,10.60
2023-02-18T20:42:47.569Z,10.63
2023-02-18T20:45:15.219Z,10.62
2023-02-18T20:47:42.854Z,10.48
2023-02-18T20:50:12.023Z,10.46
2023-02-18T20:52:40.446Z,10.54
2023-02-18T20:55:08.188Z,10.45
2023-02-18T20:57:35.935Z,10.37
2023-02-18T21:00:05.964Z,10.34
2023-02-18T21:02:33.604Z,10.33
2023-02-18T21:05:01.232Z,10.22
2023-02-18T21:07:30.167Z,10.25
2023-02-18T21:09:57.792Z,10.23
2023-02-18T21:12:25.433Z,10.31
2023-02-18T21:14:53.043Z,10.30
2023-02-18T21:17:22.031Z,10.24
2023-02-18T21:19:49.698Z,10.35
2023-02-18T21:22:17.292Z,10.22
2023-02-18T21:24:46.183Z,10.24
2023-02-18T21:27:13.794Z,10.20
2023-02-18T21:29:41.445Z,10.13
2023-02-18T21:32:09.204Z,10.17
2023-02-18T21:34:36.987Z,10.28
2023-02-18T21:37:04.618Z,10.19
2023-02-18T21:39:32.194Z,10.19
2023-02-18T21:42:03.989Z,10.16
2023-02-18T21:44:41.744Z,10.17
2023-02-18T21:47:10.184Z,10.22
2023-02-18T21:49:37.800Z,10.12
2023-02-18T21:52:09.251Z,10.15
2023-02-18T21:54:39.706Z,10.04
2023-02-18T21:57:11.465Z,10.07
2023-02-18T21:59:39.486Z,10.07
2023-02-18T22:02:09.871Z,10.07
2023-02-18T22:04:37.898Z,10.09
2023-02-18T22:07:05.476Z,10.10
2023-02-18T22:09:33.067Z,10.11
2023-02-18T22:12:00.828Z,10.13
2023-02-18T22:14:29.974Z,10.12
2023-02-18T22:16:57.696Z,10.08
2023-02-18T22:19:25.585Z,10.13
2023-02-18T22:21:53.198Z,10.08
2023-02-18T22:24:20.821Z,10.14
2023-02-18T22:26:49.021Z,10.13
2023-02-18T22:29:18.529Z,10.11
2023-02-18T22:31:49.382Z,10.13
2023-02-18T22:34:17.126Z,10.17
2023-02-18T22:36:44.724Z,10.15
2023-02-18T22:39:12.570Z,10.10
2023-02-18T22:41:40.240Z,10.12
2023-02-18T22:44:10.135Z,10.14
2023-02-18T22:46:38.528Z,10.14
2023-02-18T22:49:08.099Z,10.09
2023-02-18T22:51:38.367Z,10.17
2023-02-18T22:54:07.301Z,10.19
2023-02-18T22:56:34.938Z,10.17
2023-02-18T22:59:02.927Z,10.09
2023-02-18T23:01:33.113Z,10.11
2023-02-18T23:04:05.897Z,10.09
2023-02-18T23:06:35.265Z,10.14
2023-02-18T23:09:03.228Z,10.08
2023-02-18T23:11:31.012Z,10.10
2023-02-18T23:14:16.430Z,10.04
2023-02-18T23:17:01.716Z,10.00
2023-02-18T23:19:31.755Z,9.94
2023-02-18T23:22:00.820Z,9.91
2023-02-18T23:28:47.539Z,9.96
2023-02-18T23:31:16.937Z,10.02
2023-02-18T23:33:45.214Z,10.03
2023-02-18T23:36:15.271Z,10.06
2023-02-18T23:38:47.682Z,9.99
2023-02-18T23:41:15.258Z,10.05
2023-02-18T23:43:42.876Z,10.03
2023-02-18T23:46:10.470Z,9.99
2023-02-18T23:48:38.562Z,9.88
2023-02-18T23:51:09.154Z,9.79
2023-02-18T23:53:38.075Z,9.85
2023-02-18T23:56:11.675Z,9.75
2023-02-18T23:58:40.106Z,9.71
